sensor_id;sensor_type;location;lat;lon;timestamp;pressure;altitude;pressure_sealevel;temperature;humidity
4836;BME280;66719;51.226;6.902;2023-01-30T00:01:00;101182.69;;;2.61;100.00
4836;BME280;66719;51.226;6.902;2023-01-30T00:03:29;101145.72;;;2.63;100.00
4836;BME280;66719;51.226;6.902;2023-01-30T00:05:55;101154.34;;;2.65;100.00
4836;BME280;66719;51.226;6.902;2023-01-30T00:08:22;101156.22;;;2.72;100.00
4836;BME280;66719;51.226;6.902;2023-01-30T00:10:49;101165.78;;;2.78;100.00
4836;BME280;66719;51.226;6.902;2023-01-30T00:13:16;101178.81;;;2.81;100.00
4836;BME280;66719;51.226;6.902;2023-01-30T00:15:42;101175.25;;;2.76;100.00
4836;BME280;66719;51.226;6.902;2023-01-30T00:18:09;101170.09;;;2.77;100.00
4836;BME280;66719;51.226;6.902;2023-01-30T00:20:36;101164.91;;;2.76;100.00
4836;BME280;66719;51.226;6.902;2023-01-30T00:23:03;101147.75;;;2.79;100.00
4836;BME280;66719;51.226;6.902;2023-01-30T00:25:29;101153.00;;;2.84;100.00
4836;BME280;66719;51.226;6.902;2023-01-30T00:28:00;101157.41;;;2.88;100.00
4836;BME280;66719;51.226;6.902;2023-01-30T00:30:28;101146.25;;;2.91;100.00
4836;BME280;66719;51.226;6.902;2023-01-30T00:32:58;101148.00;;;2.93;100.00
4836;BME280;66719;51.226;6.902;2023-01-30T00:35:25;101138.47;;;2.89;100.00
4836;BME280;66719;51.226;6.902;2023-01-30T00:37:57;101135.97;;;2.95;100.00
4836;BME280;66719;51.226;6.902;2023-01-30T00:40:25;101137.75;;;2.96;100.00
4836;BME280;66719;51.226;6.902;2023-01-30T00:42:53;101129.94;;;2.95;100.00
4836;BME280;66719;51.226;6.902;2023-01-30T00:45:40;101136.81;;;2.93;100.00
4836;BME280;66719;51.226;6.902;2023-01-30T00:48:26;101111.03;;;2.97;100.00
4836;BME280;66719;51.226;6.902;2023-01-30T00:50:53;101116.28;;;3.02;100.00
4836;BME280;66719;51.226;6.902;2023-01-30T00:53:20;101091.38;;;3.05;100.00
4836;BME280;66719;51.226;6.902;2023-01-30T00:55:46;101094.81;;;3.04;100.00
4836;BME280;66719;51.226;6.902;2023-01-30T00:58:13;101094.00;;;3.08;100.00
4836;BME280;66719;51.226;6.902;2023-01-30T01:00:39;101096.56;;;3.07;100.00
4836;BME280;66719;51.226;6.902;2023-01-30T01:03:06;101091.44;;;3.10;100.00
4836;BME280;66719;51.226;6.902;2023-01-30T01:05:33;101089.69;;;3.09;100.00
4836;BME280;66719;51.226;6.902;2023-01-30T01:07:59;101083.69;;;3.11;100.00
4836;BME280;66719;51.226;6.902;2023-01-30T01:10:26;101087.25;;;3.17;100.00
4836;BME280;66719;51.226;6.902;2023-01-30T01:12:53;101089.84;;;3.18;100.00
4836;BME280;66719;51.226;6.902;2023-01-30T01:15:20;101084.66;;;3.17;100.00
4836;BME280;66719;51.226;6.902;2023-01-30T01:17:48;101081.25;;;3.19;100.00
4836;BME280;66719;51.226;6.902;2023-01-30T01:20:16;101077.03;;;3.24;100.00
4836;BME280;66719;51.226;6.902;2023-01-30T01:22:43;101072.75;;;3.26;100.00
4836;BME280;66719;51.226;6.902;2023-01-30T01:25:10;101056.34;;;3.26;100.00
4836;BME280;66719;51.226;6.902;2023-01-30T01:27:37;101060.78;;;3.31;100.00
4836;BME280;66719;51.226;6.902;2023-01-30T01:30:04;101052.13;;;3.31;100.00
4836;BME280;66719;51.226;6.902;2023-01-30T01:32:31;101051.28;;;3.32;100.00
4836;BME280;66719;51.226;6.902;2023-01-30T01:34:57;101062.50;;;3.31;100.00
4836;BME280;66719;51.226;6.902;2023-01-30T01:37:24;101058.84;;;3.21;100.00
4836;BME280;66719;51.226;6.902;2023-01-30T01:39:50;101055.38;;;3.19;100.00
4836;BME280;66719;51.226;6.902;2023-01-30T01:42:37;101040.88;;;3.29;100.00
4836;BME280;66719;51.226;6.902;2023-01-30T01:47:56;101040.22;;;3.40;100.00
4836;BME280;66719;51.226;6.902;2023-01-30T01:50:31;101044.56;;;3.43;100.00
4836;BME280;66719;51.226;6.902;2023-01-30T01:53:03;101051.50;;;3.47;100.00
4836;BME280;66719;51.226;6.902;2023-01-30T01:55:30;101048.03;;;3.45;100.00
4836;BME280;66719;51.226;6.902;2023-01-30T01:58:05;101046.31;;;3.46;100.00
4836;BME280;66719;51.226;6.902;2023-01-30T02:00:33;101047.28;;;3.51;100.00
4836;BME280;66719;51.226;6.902;2023-01-30T02:03:17;101033.47;;;3.52;100.00
4836;BME280;66719;51.226;6.902;2023-01-30T02:05:48;101020.56;;;3.53;100.00
4836;BME280;66719;51.226;6.902;2023-01-30T02:08:19;101017.13;;;3.54;100.00
4836;BME280;66719;51.226;6.902;2023-01-30T02:10:59;101014.59;;;3.57;100.00
4836;BME280;66719;51.226;6.902;2023-01-30T02:13:28;101010.28;;;3.56;100.00
4836;BME280;66719;51.226;6.902;2023-01-30T02:15:57;101013.75;;;3.58;100.00
4836;BME280;66719;51.226;6.902;2023-01-30T02:18:27;101004.19;;;3.54;100.00
4836;BME280;66719;51.226;6.902;2023-01-30T02:32:55;100977.63;;;3.67;100.00
4836;BME280;66719;51.226;6.902;2023-01-30T02:35:33;100965.53;;;3.66;100.00
4836;BME280;66719;51.226;6.902;2023-01-30T02:43:35;100963.00;;;3.73;100.00
4836;BME280;66719;51.226;6.902;2023-01-30T02:46:16;100963.84;;;3.70;100.00
4836;BME280;66719;51.226;6.902;2023-01-30T02:49:02;100952.72;;;3.76;100.00
4836;BME280;66719;51.226;6.902;2023-01-30T02:51:35;100938.91;;;3.75;100.00
4836;BME280;66719;51.226;6.902;2023-01-30T02:54:09;100945.81;;;3.78;100.00
4836;BME280;66719;51.226;6.902;2023-01-30T02:56:56;100934.63;;;3.79;100.00
4836;BME280;66719;51.226;6.902;2023-01-30T02:59:41;100937.22;;;3.80;100.00
4836;BME280;66719;51.226;6.902;2023-01-30T03:02:12;100937.22;;;3.82;100.00
4836;BME280;66719;51.226;6.902;2023-01-30T03:04:51;100936.44;;;3.86;100.00
4836;BME280;66719;51.226;6.902;2023-01-30T03:16:37;100921.91;;;3.98;100.00
4836;BME280;66719;51.226;6.902;2023-01-30T03:19:05;100927.94;;;3.99;100.00
4836;BME280;66719;51.226;6.902;2023-01-30T03:21:40;100920.25;;;4.05;100.00
4836;BME280;66719;51.226;6.902;2023-01-30T03:24:07;100921.97;;;4.03;100.00
4836;BME280;66719;51.226;6.902;2023-01-30T03:26:36;100914.22;;;4.06;100.00
4836;BME280;66719;51.226;6.902;2023-01-30T03:29:05;100920.16;;;3.97;100.00
4836;BME280;66719;51.226;6.902;2023-01-30T03:31:31;100913.34;;;4.04;100.00
4836;BME280;66719;51.226;6.902;2023-01-30T03:33:58;100902.13;;;4.05;100.00
4836;BME280;66719;51.226;6.902;2023-01-30T03:36:25;100902.13;;;4.05;100.00
4836;BME280;66719;51.226;6.902;2023-01-30T03:38:51;100901.25;;;4.06;100.00
4836;BME280;66719;51.226;6.902;2023-01-30T03:41:18;100896.94;;;4.04;100.00
4836;BME280;66719;51.226;6.902;2023-01-30T03:43:44;100900.38;;;4.04;100.00
4836;BME280;66719;51.226;6.902;2023-01-30T03:46:11;100894.38;;;4.08;100.00
4836;BME280;66719;51.226;6.902;2023-01-30T03:48:37;100891.78;;;4.08;100.00
4836;BME280;66719;51.226;6.902;2023-01-30T03:51:04;100866.00;;;4.20;100.00
4836;BME280;66719;51.226;6.902;2023-01-30T03:53:30;100862.50;;;4.15;100.00
4836;BME280;66719;51.226;6.902;2023-01-30T03:55:57;100870.25;;;4.12;100.00
4836;BME280;66719;51.226;6.902;2023-01-30T03:58:23;100867.72;;;4.18;100.00
4836;BME280;66719;51.226;6.902;2023-01-30T04:00:50;100859.97;;;4.18;100.00
4836;BME280;66719;51.226;6.902;2023-01-30T04:03:16;100866.81;;;4.16;100.00
4836;BME280;66719;51.226;6.902;2023-01-30T04:05:43;100850.44;;;4.17;100.00
4836;BME280;66719;51.226;6.902;2023-01-30T04:08:09;100852.19;;;4.20;100.00
4836;BME280;66719;51.226;6.902;2023-01-30T04:10:36;100854.78;;;4.21;100.00
4836;BME280;66719;51.226;6.902;2023-01-30T04:13:02;100840.09;;;4.17;100.00
4836;BME280;66719;51.226;6.902;2023-01-30T04:15:29;100862.56;;;4.20;100.00
4836;BME280;66719;51.226;6.902;2023-01-30T04:17:55;100847.00;;;4.18;100.00
4836;BME280;66719;51.226;6.902;2023-01-30T04:20:22;100832.34;;;4.20;100.00
4836;BME280;66719;51.226;6.902;2023-01-30T04:22:48;100837.50;;;4.17;100.00
4836;BME280;66719;51.226;6.902;2023-01-30T04:25:15;100827.13;;;4.17;100.00
4836;BME280;66719;51.226;6.902;2023-01-30T04:27:42;100854.78;;;4.21;100.00
4836;BME280;66719;51.226;6.902;2023-01-30T04:30:09;100828.88;;;4.23;100.00
4836;BME280;66719;51.226;6.902;2023-01-30T04:32:36;100828.03;;;4.22;100.00
4836;BME280;66719;51.226;6.902;2023-01-30T04:35:03;100839.25;;;4.24;100.00
4836;BME280;66719;51.226;6.902;2023-01-30T04:37:29;100822.84;;;4.25;100.00
4836;BME280;66719;51.226;6.902;2023-01-30T04:39:56;100828.97;;;4.32;100.00
4836;BME280;66719;51.226;6.902;2023-01-30T04:42:22;100830.75;;;4.35;100.00
4836;BME280;66719;51.226;6.902;2023-01-30T04:44:49;100834.19;;;4.35;100.00
4836;BME280;66719;51.226;6.902;2023-01-30T04:47:16;100831.59;;;4.35;100.00
4836;BME280;66719;51.226;6.902;2023-01-30T04:49:43;100830.69;;;4.32;100.00
4836;BME280;66719;51.226;6.902;2023-01-30T04:52:09;100837.59;;;4.33;100.00
4836;BME280;66719;51.226;6.902;2023-01-30T04:54:35;100832.44;;;4.33;100.00
4836;BME280;66719;51.226;6.902;2023-01-30T04:57:02;100841.97;;;4.37;100.00
4836;BME280;66719;51.226;6.902;2023-01-30T04:59:28;100835.88;;;4.33;100.00
4836;BME280;66719;51.226;6.902;2023-01-30T05:01:55;100824.69;;;4.36;100.00
4836;BME280;66719;51.226;6.902;2023-01-30T05:04:21;100816.94;;;4.36;100.00
4836;BME280;66719;51.226;6.902;2023-01-30T05:06:48;100817.75;;;4.32;100.00
4836;BME280;66719;51.226;6.902;2023-01-30T05:09:14;100814.34;;;4.36;100.00
4836;BME280;66719;51.226;6.902;2023-01-30T05:11:41;100816.94;;;4.37;100.00
4836;BME280;66719;51.226;6.902;2023-01-30T05:14:07;100821.25;;;4.40;100.00
4836;BME280;66719;51.226;6.902;2023-01-30T05:16:34;100812.63;;;4.41;100.00
4836;BME280;66719;51.226;6.902;2023-01-30T05:19:00;100824.72;;;4.39;100.00
4836;BME280;66719;51.226;6.902;2023-01-30T05:21:27;100828.16;;;4.38;100.00
4836;BME280;66719;51.226;6.902;2023-01-30T05:23:55;100810.03;;;4.38;100.00
4836;BME280;66719;51.226;6.902;2023-01-30T05:26:22;100817.78;;;4.38;100.00
4836;BME280;66719;51.226;6.902;2023-01-30T05:28:54;100810.91;;;4.40;100.00
4836;BME280;66719;51.226;6.902;2023-01-30T05:31:20;100825.56;;;4.39;100.00
4836;BME280;66719;51.226;6.902;2023-01-30T05:33:48;100817.81;;;4.41;100.00
4836;BME280;66719;51.226;6.902;2023-01-30T05:36:17;100809.16;;;4.39;100.00
4836;BME280;66719;51.226;6.902;2023-01-30T05:38:44;100805.69;;;4.37;100.00
4836;BME280;66719;51.226;6.902;2023-01-30T05:41:12;100797.06;;;4.35;100.00
4836;BME280;66719;51.226;6.902;2023-01-30T05:43:40;100797.06;;;4.35;100.00
4836;BME280;66719;51.226;6.902;2023-01-30T05:46:06;100797.06;;;4.41;100.00
4836;BME280;66719;51.226;6.902;2023-01-30T05:48:35;100798.00;;;4.44;100.00
4836;BME280;66719;51.226;6.902;2023-01-30T05:51:01;100791.94;;;4.47;100.00
4836;BME280;66719;51.226;6.902;2023-01-30T05:53:30;100792.00;;;4.53;100.00
4836;BME280;66719;51.226;6.902;2023-01-30T05:55:59;100786.78;;;4.51;100.00
4836;BME280;66719;51.226;6.902;2023-01-30T05:58:27;100788.56;;;4.56;100.00
4836;BME280;66719;51.226;6.902;2023-01-30T06:00:59;100793.72;;;4.52;100.00
4836;BME280;66719;51.226;6.902;2023-01-30T06:03:25;100797.19;;;4.58;100.00
4836;BME280;66719;51.226;6.902;2023-01-30T06:05:52;100793.75;;;4.57;100.00
4836;BME280;66719;51.226;6.902;2023-01-30T06:08:19;100792.06;;;4.62;100.00
4836;BME280;66719;51.226;6.902;2023-01-30T06:10:45;100795.53;;;4.64;100.00
4836;BME280;66719;51.226;6.902;2023-01-30T06:13:12;100800.72;;;4.64;100.00
4836;BME280;66719;51.226;6.902;2023-01-30T06:15:38;100811.06;;;4.61;100.00
4836;BME280;66719;51.226;6.902;2023-01-30T06:18:05;100814.53;;;4.65;100.00
4836;BME280;66719;51.226;6.902;2023-01-30T06:20:31;100812.81;;;4.65;100.00
4836;BME280;66719;51.226;6.902;2023-01-30T06:22:58;100815.47;;;4.73;100.00
4836;BME280;66719;51.226;6.902;2023-01-30T06:25:24;100821.50;;;4.73;100.00
4836;BME280;66719;51.226;6.902;2023-01-30T06:27:52;100819.78;;;4.75;100.00
4836;BME280;66719;51.226;6.902;2023-01-30T06:30:19;100813.75;;;4.76;100.00
4836;BME280;66719;51.226;6.902;2023-01-30T06:32:49;100821.50;;;4.70;100.00
4836;BME280;66719;51.226;6.902;2023-01-30T06:35:15;100818.13;;;4.80;100.00
4836;BME280;66719;51.226;6.902;2023-01-30T06:37:43;100829.34;;;4.79;100.00
4836;BME280;66719;51.226;6.902;2023-01-30T06:40:11;100831.91;;;4.76;100.00
4836;BME280;66719;51.226;6.902;2023-01-30T06:42:43;100833.66;;;4.80;100.00
4836;BME280;66719;51.226;6.902;2023-01-30T06:45:10;100822.47;;;4.88;100.00
4836;BME280;66719;51.226;6.902;2023-01-30T06:47:47;100831.09;;;4.85;100.00
4836;BME280;66719;51.226;6.902;2023-01-30T06:50:15;100833.72;;;4.90;100.00
4836;BME280;66719;51.226;6.902;2023-01-30T06:52:47;100835.44;;;4.88;100.00
4836;BME280;66719;51.226;6.902;2023-01-30T06:55:16;100846.69;;;4.88;100.00
4836;BME280;66719;51.226;6.902;2023-01-30T06:57:44;100841.53;;;4.94;100.00
4836;BME280;66719;51.226;6.902;2023-01-30T07:00:13;100855.34;;;4.92;100.00
4836;BME280;66719;51.226;6.902;2023-01-30T07:02:41;100849.34;;;4.96;100.00
4836;BME280;66719;51.226;6.902;2023-01-30T07:05:08;100848.47;;;4.97;100.00
4836;BME280;66719;51.226;6.902;2023-01-30T07:07:36;100840.72;;;5.01;100.00
4836;BME280;66719;51.226;6.902;2023-01-30T07:10:04;100837.25;;;5.01;100.00
4836;BME280;66719;51.226;6.902;2023-01-30T07:12:34;100841.63;;;5.06;100.00
4836;BME280;66719;51.226;6.902;2023-01-30T07:15:02;100829.50;;;5.04;100.00
4836;BME280;66719;51.226;6.902;2023-01-30T07:17:29;100842.47;;;5.04;100.00
4836;BME280;66719;51.226;6.902;2023-01-30T07:19:56;100845.06;;;5.07;100.00
4836;BME280;66719;51.226;6.902;2023-01-30T07:22:22;100822.59;;;5.09;100.00
4836;BME280;66719;51.226;6.902;2023-01-30T07:24:49;100835.56;;;5.10;100.00
4836;BME280;66719;51.226;6.902;2023-01-30T07:27:16;100831.25;;;5.08;100.00
4836;BME280;66719;51.226;6.902;2023-01-30T07:29:42;100837.34;;;5.13;100.00
4836;BME280;66719;51.226;6.902;2023-01-30T07:32:17;100841.66;;;5.17;100.00
4836;BME280;66719;51.226;6.902;2023-01-30T07:34:46;100839.06;;;5.19;100.00
4836;BME280;66719;51.226;6.902;2023-01-30T07:37:13;100831.28;;;5.16;100.00
4836;BME280;66719;51.226;6.902;2023-01-30T07:39:40;100832.16;;;5.19;100.00
4836;BME280;66719;51.226;6.902;2023-01-30T07:42:07;100833.88;;;5.19;100.00
4836;BME280;66719;51.226;6.902;2023-01-30T07:44:33;100845.16;;;5.24;100.00
4836;BME280;66719;51.226;6.902;2023-01-30T07:47:00;100846.03;;;5.24;100.00
4836;BME280;66719;51.226;6.902;2023-01-30T07:49:26;100850.34;;;5.25;100.00
4836;BME280;66719;51.226;6.902;2023-01-30T07:51:53;100852.97;;;5.25;100.00
4836;BME280;66719;51.226;6.902;2023-01-30T07:54:19;100870.31;;;5.35;100.00
4836;BME280;66719;51.226;6.902;2023-01-30T07:56:46;100865.13;;;5.32;100.00
4836;BME280;66719;51.226;6.902;2023-01-30T07:59:12;100864.25;;;5.36;100.00
4836;BME280;66719;51.226;6.902;2023-01-30T08:01:39;100866.03;;;5.41;100.00
4836;BME280;66719;51.226;6.902;2023-01-30T08:04:05;100859.97;;;5.40;100.00
4836;BME280;66719;51.226;6.902;2023-01-30T08:06:32;100869.47;;;5.43;100.00
4836;BME280;66719;51.226;6.902;2023-01-30T08:09:05;100864.28;;;5.44;100.00
4836;BME280;66719;51.226;6.902;2023-01-30T08:11:32;100867.75;;;5.42;100.00
4836;BME280;66719;51.226;6.902;2023-01-30T08:13:59;100859.97;;;5.46;100.00
4836;BME280;66719;51.226;6.902;2023-01-30T08:16:25;100862.59;;;5.48;100.00
4836;BME280;66719;51.226;6.902;2023-01-30T08:18:52;100879.03;;;5.53;100.00
4836;BME280;66719;51.226;6.902;2023-01-30T08:21:19;100879.91;;;5.49;100.00
4836;BME280;66719;51.226;6.902;2023-01-30T08:23:45;100872.13;;;5.49;100.00
4836;BME280;66719;51.226;6.902;2023-01-30T08:26:12;100885.94;;;5.45;100.00
4836;BME280;66719;51.226;6.902;2023-01-30T08:28:39;100888.56;;;5.48;100.00
4836;BME280;66719;51.226;6.902;2023-01-30T08:31:10;100885.09;;;5.52;100.00
4836;BME280;66719;51.226;6.902;2023-01-30T08:33:38;100894.63;;;5.56;100.00
4836;BME280;66719;51.226;6.902;2023-01-30T08:36:04;100889.50;;;5.66;100.00
4836;BME280;66719;51.226;6.902;2023-01-30T08:38:31;100889.50;;;5.68;100.00
4836;BME280;66719;51.226;6.902;2023-01-30T08:40:57;100880.84;;;5.71;100.00
4836;BME280;66719;51.226;6.902;2023-01-30T08:43:26;100893.00;;;5.76;100.00
4836;BME280;66719;51.226;6.902;2023-01-30T08:45:53;100887.81;;;5.78;100.00
4836;BME280;66719;51.226;6.902;2023-01-30T08:48:20;100898.19;;;5.79;100.00
4836;BME280;66719;51.226;6.902;2023-01-30T08:50:46;100901.69;;;5.89;100.00
4836;BME280;66719;51.226;6.902;2023-01-30T08:53:13;100893.91;;;5.87;100.00
4836;BME280;66719;51.226;6.902;2023-01-30T08:55:39;100914.69;;;5.89;100.00
4836;BME280;66719;51.226;6.902;2023-01-30T08:58:06;100909.53;;;5.90;100.00
4836;BME280;66719;51.226;6.902;2023-01-30T09:00:32;100915.63;;;5.92;100.00
4836;BME280;66719;51.226;6.902;2023-01-30T09:02:59;100942.47;;;5.93;100.00
4836;BME280;66719;51.226;6.902;2023-01-30T09:05:27;100935.56;;;6.01;100.00
4836;BME280;66719;51.226;6.902;2023-01-30T09:07:55;100929.47;;;5.98;100.00
4836;BME280;66719;51.226;6.902;2023-01-30T09:10:21;100938.16;;;6.00;100.00
4836;BME280;66719;51.226;6.902;2023-01-30T09:12:49;100916.50;;;6.01;100.00
4836;BME280;66719;51.226;6.902;2023-01-30T09:15:16;100899.16;;;5.98;100.00
4836;BME280;66719;51.226;6.902;2023-01-30T09:17:42;100899.16;;;5.97;100.00
4836;BME280;66719;51.226;6.902;2023-01-30T09:20:11;100900.88;;;5.96;100.00
4836;BME280;66719;51.226;6.902;2023-01-30T09:22:37;100896.59;;;6.00;100.00
4836;BME280;66719;51.226;6.902;2023-01-30T09:25:05;100902.66;;;6.02;100.00
4836;BME280;66719;51.226;6.902;2023-01-30T09:27:32;100893.97;;;6.03;100.00
4836;BME280;66719;51.226;6.902;2023-01-30T09:29:58;100915.66;;;6.11;100.00
4836;BME280;66719;51.226;6.902;2023-01-30T09:32:25;100909.59;;;6.15;100.00
4836;BME280;66719;51.226;6.902;2023-01-30T09:34:51;100914.78;;;6.13;100.00
4836;BME280;66719;51.226;6.902;2023-01-30T09:37:18;100915.66;;;6.12;100.00
4836;BME280;66719;51.226;6.902;2023-01-30T09:39:45;100913.94;;;6.14;100.00
4836;BME280;66719;51.226;6.902;2023-01-30T09:42:52;100930.38;;;6.15;100.00
4836;BME280;66719;51.226;6.902;2023-01-30T09:45:54;100938.19;;;6.15;100.00
4836;BME280;66719;51.226;6.902;2023-01-30T09:48:31;100922.59;;;6.16;100.00
4836;BME280;66719;51.226;6.902;2023-01-30T09:51:14;100932.16;;;6.17;100.00
4836;BME280;66719;51.226;6.902;2023-01-30T09:54:08;100927.81;;;6.18;100.00
4836;BME280;66719;51.226;6.902;2023-01-30T09:56:39;100939.94;;;6.25;100.00
4836;BME280;66719;51.226;6.902;2023-01-30T09:59:17;100923.47;;;6.24;100.00
4836;BME280;66719;51.226;6.902;2023-01-30T10:09:58;100937.38;;;6.28;100.00
4836;BME280;66719;51.226;6.902;2023-01-30T10:21:23;100954.72;;;6.28;100.00
4836;BME280;66719;51.226;6.902;2023-01-30T10:26:31;100940.84;;;6.27;100.00
4836;BME280;66719;51.226;6.902;2023-01-30T10:29:29;100938.22;;;6.21;100.00
4836;BME280;66719;51.226;6.902;2023-01-30T10:32:04;100945.16;;;6.20;100.00
4836;BME280;66719;51.226;6.902;2023-01-30T10:34:41;100946.03;;;6.26;100.00
4836;BME280;66719;51.226;6.902;2023-01-30T10:37:14;100954.69;;;6.23;100.00
4836;BME280;66719;51.226;6.902;2023-01-30T10:40:06;100946.00;;;6.22;100.00
4836;BME280;66719;51.226;6.902;2023-01-30T10:45:18;100952.09;;;6.26;100.00
4836;BME280;66719;51.226;6.902;2023-01-30T10:54:02;100954.72;;;6.26;100.00
4836;BME280;66719;51.226;6.902;2023-01-30T10:56:41;100953.84;;;6.27;100.00
4836;BME280;66719;51.226;6.902;2023-01-30T10:59:45;100973.78;;;6.27;100.00
4836;BME280;66719;51.226;6.902;2023-01-30T11:04:50;100955.59;;;6.37;100.00
4836;BME280;66719;51.226;6.902;2023-01-30T11:07:21;100958.22;;;6.43;100.00
4836;BME280;66719;51.226;6.902;2023-01-30T11:09:48;100956.44;;;6.42;100.00
4836;BME280;66719;51.226;6.902;2023-01-30T11:12:14;100949.53;;;6.37;100.00
4836;BME280;66719;51.226;6.902;2023-01-30T11:14:54;100954.72;;;6.37;100.00
4836;BME280;66719;51.226;6.902;2023-01-30T11:17:32;100951.22;;;6.33;100.00
4836;BME280;66719;51.226;6.902;2023-01-30T11:20:20;100954.69;;;6.34;100.00
4836;BME280;66719;51.226;6.902;2023-01-30T11:23:05;100955.59;;;6.40;100.00
4836;BME280;66719;51.226;6.902;2023-01-30T11:25:46;100950.41;;;6.43;100.00
4836;BME280;66719;51.226;6.902;2023-01-30T11:28:15;100965.16;;;6.52;100.00
4836;BME280;66719;51.226;6.902;2023-01-30T11:30:52;100962.56;;;6.54;100.00
4836;BME280;66719;51.226;6.902;2023-01-30T11:33:20;100957.34;;;6.46;100.00
4836;BME280;66719;51.226;6.902;2023-01-30T11:35:54;100974.69;;;6.47;100.00
4836;BME280;66719;51.226;6.902;2023-01-30T11:38:24;100969.50;;;6.53;100.00
4836;BME280;66719;51.226;6.902;2023-01-30T11:41:02;100966.03;;;6.56;100.00
4836;BME280;66719;51.226;6.902;2023-01-30T11:43:32;100969.50;;;6.53;100.00
4836;BME280;66719;51.226;6.902;2023-01-30T11:45:59;100966.00;;;6.51;100.00
4836;BME280;66719;51.226;6.902;2023-01-30T11:48:28;100959.94;;;6.50;100.00
4836;BME280;66719;51.226;6.902;2023-01-30T11:51:16;100962.53;;;6.47;100.00
4836;BME280;66719;51.226;6.902;2023-01-30T11:53:46;100970.34;;;6.44;100.00
4836;BME280;66719;51.226;6.902;2023-01-30T11:56:26;100977.28;;;6.47;100.00
4836;BME280;66719;51.226;6.902;2023-01-30T11:58:58;100987.72;;;6.55;100.00
4836;BME280;66719;51.226;6.902;2023-01-30T12:01:28;100952.16;;;6.52;100.00
4836;BME280;66719;51.226;6.902;2023-01-30T12:03:57;100972.09;;;6.55;100.00
4836;BME280;66719;51.226;6.902;2023-01-30T12:06:32;100932.22;;;6.57;100.00
4836;BME280;66719;51.226;6.902;2023-01-30T12:09:00;100964.28;;;6.58;100.00
4836;BME280;66719;51.226;6.902;2023-01-30T12:11:30;100962.56;;;6.63;100.00
4836;BME280;66719;51.226;6.902;2023-01-30T12:16:59;100977.31;;;6.62;100.00
4836;BME280;66719;51.226;6.902;2023-01-30T12:19:34;100973.84;;;6.56;100.00
4836;BME280;66719;51.226;6.902;2023-01-30T12:22:21;100986.84;;;6.65;100.00
4836;BME280;66719;51.226;6.902;2023-01-30T12:25:24;100961.72;;;6.65;100.00
4836;BME280;66719;51.226;6.902;2023-01-30T12:28:03;100959.97;;;6.72;100.00
4836;BME280;66719;51.226;6.902;2023-01-30T12:30:41;100953.03;;;6.75;100.00
4836;BME280;66719;51.226;6.902;2023-01-30T12:33:11;100947.84;;;6.74;100.00
4836;BME280;66719;51.226;6.902;2023-01-30T12:36:04;100955.66;;;6.80;100.00
4836;BME280;66719;51.226;6.902;2023-01-30T12:38:56;100966.06;;;6.88;100.00
4836;BME280;66719;51.226;6.902;2023-01-30T12:52:36;100955.66;;;6.97;100.00
4836;BME280;66719;51.226;6.902;2023-01-30T13:01:14;100975.63;;;6.96;100.00
4836;BME280;66719;51.226;6.902;2023-01-30T13:03:48;100979.06;;;6.94;100.00
4836;BME280;66719;51.226;6.902;2023-01-30T13:06:47;100981.69;;;6.92;100.00
4836;BME280;66719;51.226;6.902;2023-01-30T13:12:28;100979.06;;;7.01;100.00
4836;BME280;66719;51.226;6.902;2023-01-30T13:22:45;100988.63;;;7.05;100.00
4836;BME280;66719;51.226;6.902;2023-01-30T13:28:23;101021.59;;;7.09;100.00
4836;BME280;66719;51.226;6.902;2023-01-30T13:30:52;101005.13;;;7.07;100.00
4836;BME280;66719;51.226;6.902;2023-01-30T13:33:26;101013.78;;;7.08;100.00
4836;BME280;66719;51.226;6.902;2023-01-30T13:38:30;101013.78;;;7.08;100.00
4836;BME280;66719;51.226;6.902;2023-01-30T13:41:00;101008.59;;;7.13;100.00
4836;BME280;66719;51.226;6.902;2023-01-30T13:43:37;101027.69;;;7.08;100.00
4836;BME280;66719;51.226;6.902;2023-01-30T13:46:09;101056.31;;;7.12;100.00
4836;BME280;66719;51.226;6.902;2023-01-30T13:52:00;101030.28;;;7.24;100.00
4836;BME280;66719;51.226;6.902;2023-01-30T13:57:22;101029.44;;;7.22;100.00
4836;BME280;66719;51.226;6.902;2023-01-30T14:02:32;101029.41;;;7.16;100.00
4836;BME280;66719;51.226;6.902;2023-01-30T14:04:59;101045.03;;;7.14;100.00
4836;BME280;66719;51.226;6.902;2023-01-30T14:07:39;101030.28;;;7.21;100.00
4836;BME280;66719;51.226;6.902;2023-01-30T14:10:18;101058.06;;;7.19;100.00
4836;BME280;66719;51.226;6.902;2023-01-30T14:12:53;101046.78;;;7.18;100.00
4836;BME280;66719;51.226;6.902;2023-01-30T14:15:24;101047.63;;;7.19;100.00
4836;BME280;66719;51.226;6.902;2023-01-30T14:20:25;101057.19;;;7.14;100.00
4836;BME280;66719;51.226;6.902;2023-01-30T14:22:56;101067.59;;;7.15;100.00
4836;BME280;66719;51.226;6.902;2023-01-30T14:30:44;101074.56;;;7.15;100.00
4836;BME280;66719;51.226;6.902;2023-01-30T14:38:35;101078.91;;;7.22;100.00
4836;BME280;66719;51.226;6.902;2023-01-30T14:49:09;101106.66;;;7.14;100.00
4836;BME280;66719;51.226;6.902;2023-01-30T14:51:43;101104.03;;;7.12;100.00
4836;BME280;66719;51.226;6.902;2023-01-30T14:56:57;101112.69;;;7.00;100.00
4836;BME280;66719;51.226;6.902;2023-01-30T14:59:47;101110.09;;;6.96;100.00
4836;BME280;66719;51.226;6.902;2023-01-30T15:02:41;101123.09;;;6.91;100.00
4836;BME280;66719;51.226;6.902;2023-01-30T15:05:13;101124.84;;;6.97;100.00
4836;BME280;66719;51.226;6.902;2023-01-30T15:07:57;101117.91;;;6.96;100.00
4836;BME280;66719;51.226;6.902;2023-01-30T15:13:25;101157.81;;;6.96;100.00
4836;BME280;66719;51.226;6.902;2023-01-30T15:30:26;101175.13;;;6.93;100.00
4836;BME280;66719;51.226;6.902;2023-01-30T15:33:18;101197.69;;;6.88;100.00
4836;BME280;66719;51.226;6.902;2023-01-30T15:35:56;101186.38;;;6.83;100.00
4836;BME280;66719;51.226;6.902;2023-01-30T15:38:26;101189.81;;;6.77;100.00
4836;BME280;66719;51.226;6.902;2023-01-30T15:41:04;101203.72;;;6.80;100.00
4836;BME280;66719;51.226;6.902;2023-01-30T15:51:33;101205.44;;;6.74;100.00
4836;BME280;66719;51.226;6.902;2023-01-30T15:54:02;101201.97;;;6.73;100.00